Flight Track Log - Related Links

Times and Time Zones

All times are in EDT time to prevent confusion due to time zone crossing. See the N96CB flight status page for this flight to view local times or setup timezone preferences in your user account.

Time Position Orientation Groundspeed Altitude Reporting Facility
EDT Latitude Longitude Course Direction KTS MPH feet Rate Location/Type
Wed 09:41:01 AM 26.2536 -80.1050 273° West 102 117 1,000  Level Miami Center
Wed 09:41:38 AM 26.2544 -80.1239 273° West 97 112 1,400 646 Climbing Miami Center
Wed 09:42:06 AM 26.2550 -80.1378 273° West 96 110 1,700 689 Climbing Miami Center
Wed 09:42:39 AM 26.2525 -80.1561 261° West 103 119 2,100 677 Climbing Miami Center
Wed 09:43:08 AM 26.2531 -80.1694 273° West 100 115 2,400 689 Climbing Miami Center
Wed 09:43:40 AM 26.2528 -80.1864 269° West 99 114 2,800 677 Climbing Miami Center
Wed 09:44:10 AM 26.2536 -80.2003 274° West 100 115 3,100 689 Climbing Miami Center
Wed 09:44:41 AM 26.2528 -80.2189 267° West 101 116 3,500 677 Climbing Miami Center
Wed 09:45:12 AM 26.2542 -80.2314 277° West 100 115 3,800 689 Climbing Miami Center
Wed 09:45:42 AM 26.2569 -80.2517 279° West 105 121 4,200 590 Climbing Miami Center
Wed 09:46:13 AM 26.2603 -80.2653 285° West 101 116 4,400 787 Climbing Miami Center
Wed 09:46:43 AM 26.2633 -80.2825 281° West 101 116 5,000 774 Climbing Miami Center
Wed 09:47:15 AM 26.2678 -80.2975 288° West 101 116 5,200 537 Climbing Miami Center
Wed 09:47:50 AM 26.2761 -80.3136 300° West 109 125 5,600 581 Climbing Miami Center
Wed 09:48:17 AM 26.2825 -80.3256 301° West 103 119 5,800 689 Climbing Miami Center
Wed 09:48:51 AM 26.2911 -80.3428 299° West 103 119 6,300 689 Climbing Miami Center
Wed 09:49:18 AM 26.2981 -80.3517 311° West 102 117 6,500 689 Climbing Miami Center
Wed 09:49:52 AM 26.3083 -80.3672 306° West 103 119 7,000 581 Climbing Miami Center
Wed 09:50:20 AM 26.3175 -80.3800 309° West 106 122 7,100 333 Climbing Miami Center
Wed 09:51:22 AM 26.3278 -80.4111 290° West 107 123 7,500 292 Climbing Miami Center
Wed 09:53:25 AM 26.3283 -80.4933 270° West 150 173 8,000 163 Climbing Miami Center
Wed 09:54:26 AM 26.3286 -80.5403 270° West 151 174 8,000  Level Miami Center
Wed 09:55:28 AM 26.3306 -80.5914 272° West 151 174 8,000  Level Miami Center
Wed 09:56:29 AM 26.3364 -80.6394 278° West 154 177 8,000  Level Miami Center
Wed 09:57:31 AM 26.3575 -80.6806 300° West 160 184 8,000  Level Miami Center
Wed 09:58:33 AM 26.4031 -80.7075 332° Northwest 168 193 8,000  Level Miami Center
Wed 09:59:34 AM 26.4431 -80.7328 330° Northwest 167 192 8,000  Level Miami Center
Wed 10:00:36 AM 26.4806 -80.7628 324° Northwest 166 191 8,000 -49 Level Miami Center
Wed 10:01:37 AM 26.5208 -80.7914 328° Northwest 167 192 7,900 -49 Descending Miami Center
Wed 10:02:39 AM 26.5631 -80.8217 327° Northwest 169 194 7,900  Level Miami Center
Wed 10:03:41 AM 26.6006 -80.8486 327° Northwest 168 193 7,900  Level Miami Center
Wed 10:04:42 AM 26.6425 -80.8769 329° Northwest 167 192 7,900  Level Miami Center
Wed 10:05:44 AM 26.6825 -80.9083 325° Northwest 167 192 7,900  Level Miami Center
Wed 10:06:46 AM 26.7214 -80.9397 324° Northwest 166 191 7,900  Level Miami Center
Wed 10:07:47 AM 26.7594 -80.9733 322° Northwest 167 192 7,900  Level Miami Center
Wed 10:08:49 AM 26.7956 -81.0039 323° Northwest 167 192 7,900  Level Miami Center
Wed 10:09:50 AM 26.8344 -81.0361 324° Northwest 167 192 7,900  Level Miami Center
Wed 10:10:52 AM 26.8719 -81.0678 323° Northwest 166 191 7,900  Level Miami Center
Wed 10:11:54 AM 26.9114 -81.1014 323° Northwest 165 190 7,900  Level Miami Center
Wed 10:12:55 AM 26.9478 -81.1322 323° Northwest 166 191 7,900  Level Miami Center
Wed 10:13:57 AM 26.9842 -81.1619 324° Northwest 164 189 7,900  Level Miami Center
Wed 10:14:59 AM 27.0219 -81.1953 322° Northwest 163 188 7,900 49 Level Miami Center
Wed 10:16:00 AM 27.0614 -81.2267 325° Northwest 164 189 8,000 49 Climbing Miami Center
Wed 10:17:02 AM 27.0950 -81.2569 321° Northwest 163 188 8,000  Level Miami Center
Wed 10:18:04 AM 27.1322 -81.2886 323° Northwest 163 188 8,000  Level Miami Center
Wed 10:19:05 AM 27.1694 -81.3194 324° Northwest 161 185 8,000 49 Level Miami Center
Wed 10:20:07 AM 27.2075 -81.3500 324° Northwest 161 185 8,100  Climbing Miami Center
Wed 10:21:09 AM 27.2417 -81.3800 322° Northwest 162 186 8,000 -49 Descending Miami Center
Wed 10:22:10 AM 27.2769 -81.4097 323° Northwest 161 185 8,000 -49 Level Miami Center
Wed 10:23:12 AM 27.3125 -81.4389 324° Northwest 161 185 7,900 -48 Descending Miami Center
Wed 10:24:14 AM 27.3483 -81.4694 323° Northwest 160 184 7,900  Level Miami Center
Wed 10:25:15 AM 27.3828 -81.4989 323° Northwest 159 183 7,900  Level Miami Center
Wed 10:26:17 AM 27.4244 -81.5344 323° Northwest 158 182 7,900  Level Miami Center
Wed 10:27:18 AM 27.4600 -81.5633 324° Northwest 158 182 7,900  Level Miami Center
Wed 10:28:20 AM 27.4953 -81.5936 323° Northwest 158 182 7,900  Level Miami Center
Wed 10:29:22 AM 27.5294 -81.6239 322° Northwest 158 182 7,900 49 Level Miami Center
Wed 10:30:23 AM 27.5642 -81.6522 324° Northwest 157 181 8,000 49 Climbing Miami Center
Wed 10:31:25 AM 27.5989 -81.6825 322° Northwest 157 181 8,000 -48 Level Miami Center
Wed 10:32:27 AM 27.6339 -81.7122 323° Northwest 157 181 7,900 -49 Descending Miami Center
Wed 10:33:28 AM 27.6758 -81.7472 324° Northwest 157 181 7,900  Level Miami Center
Wed 10:34:30 AM 27.7108 -81.7769 323° Northwest 157 181 7,900  Level Miami Center
Wed 10:35:32 AM 27.7453 -81.8067 323° Northwest 157 181 7,900  Level Miami Center
Wed 10:36:34 AM 27.7800 -81.8358 323° Northwest 157 181 7,900 49 Level Miami Center
Wed 10:37:35 AM 27.8147 -81.8656 323° Northwest 157 181 8,000 49 Climbing Miami Center
Wed 10:38:37 AM 27.8569 -81.9011 323° Northwest 157 181 8,000  Level Miami Center
Wed 10:39:25 AM 27.8833 -81.9333 313° West 154 177 8,000  Level Tampa TRACON
Wed 10:40:19 AM 27.9167 -81.9500 336° Northwest 156 180 8,000  Level Tampa TRACON
Wed 10:41:19 AM 27.9500 -81.9833 319° Northwest 157 181 8,000  Level Tampa TRACON
Wed 10:42:13 AM 27.9833 -82.0000 336° Northwest 158 182 8,000  Level Tampa TRACON
Wed 10:43:13 AM 28.0167 -82.0333 319° Northwest 158 182 8,000  Level Tampa TRACON
Wed 10:44:07 AM 28.0500 -82.0667 319° Northwest 160 184 8,000  Level Tampa TRACON
Wed 10:45:07 AM 28.0833 -82.0833 336° Northwest 158 182 8,000  Level Tampa TRACON
Wed 10:46:13 AM 28.1333 -82.1000 344° North 158 182 8,000  Level Tampa TRACON
Wed 10:47:19 AM 28.1833 -82.1333 330° Northwest 158 182 8,000  Level Tampa TRACON
Wed 10:48:19 AM 28.2167 -82.1667 319° Northwest 158 182 8,000  Level Tampa TRACON
Wed 10:49:20 AM 28.2500 -82.1833 336° Northwest 158 182 8,000  Level Tampa TRACON
Wed 10:50:14 AM 28.2833 -82.2000 336° Northwest 155 178 8,000  Level Tampa TRACON
Wed 10:51:20 AM 28.3333 -82.2333 330° Northwest 155 178 8,000  Level Tampa TRACON
Wed 10:52:02 AM 28.3500 -82.2500 319° Northwest 156 180 8,000  Level Tampa TRACON
Wed 10:53:08 AM 28.4000 -82.2667 344° North 155 178 8,000  Level Tampa TRACON
Wed 10:54:08 AM 28.4333 -82.3000 319° Northwest 155 178 8,000  Level Tampa TRACON
Wed 10:55:02 AM 28.4667 -82.3167 336° Northwest 154 177 8,000 -41 Level Tampa TRACON
Wed 10:56:36 AM 28.5267 -82.3608 327° Northwest 155 178 7,900 -40 Descending Jacksonville Center
Wed 10:57:31 AM 28.5600 -82.3797 334° Northwest 154 177 7,900  Level Jacksonville Center
Wed 10:58:38 AM 28.6019 -82.4078 330° Northwest 154 177 7,900  Level Jacksonville Center
Wed 10:59:33 AM 28.6353 -82.4267 334° Northwest 155 178 7,900  Level Jacksonville Center
Wed 11:00:41 AM 28.6792 -82.4572 329° Northwest 156 180 7,900  Level Jacksonville Center
Wed 11:01:42 AM 28.7169 -82.4831 329° Northwest 156 180 7,900 47 Level Jacksonville Center
Wed 11:02:49 AM 28.7586 -82.5089 331° Northwest 153 176 8,000  Climbing Jacksonville Center
Wed 11:03:50 AM 28.7964 -82.5325 331° Northwest 154 177 7,900 -49 Descending Jacksonville Center
Wed 11:04:51 AM 28.8339 -82.5561 331° Northwest 157 181 7,900  Level Jacksonville Center
Wed 11:05:46 AM 28.8694 -82.5819 328° Northwest 159 183 7,900  Level Jacksonville Center
Wed 11:06:47 AM 28.9072 -82.6033 334° Northwest 157 181 7,900  Level Jacksonville Center
Wed 11:07:31 AM 28.9364 -82.6222 330° Northwest 157 181 7,900  Level Jacksonville Center
Wed 11:07:48 AM 28.9489 -82.6317 327° Northwest 157 181 7,900  Level Jacksonville Center
Wed 11:08:31 AM 28.9761 -82.6458 336° Northwest 157 181 7,900  Level Jacksonville Center
Wed 11:09:31 AM 29.0136 -82.6694 331° Northwest 165 190 7,900  Level Jacksonville Center
Wed 11:10:31 AM 29.0492 -82.6931 330° Northwest 165 190 7,900  Level Jacksonville Center
Wed 11:11:31 AM 29.0889 -82.7192 330° Northwest 160 184 7,900  Level Jacksonville Center
Wed 11:12:31 AM 29.1267 -82.7428 331° Northwest 160 184 7,900  Level Jacksonville Center
Wed 11:13:31 AM 29.1683 -82.7617 338° Northwest 160 184 7,900  Level Jacksonville Center
Wed 11:14:31 AM 29.2081 -82.7808 337° Northwest 155 178 7,900  Level Jacksonville Center
Wed 11:15:31 AM 29.2478 -82.8022 335° Northwest 155 178 7,900  Level Jacksonville Center
Wed 11:16:31 AM 29.2894 -82.8211 338° Northwest 155 178 7,900  Level Jacksonville Center
Wed 11:17:31 AM 29.3250 -82.8472 327° Northwest 155 178 7,900  Level Jacksonville Center
Wed 11:18:31 AM 29.3625 -82.8736 328° Northwest 155 178 7,900  Level Jacksonville Center
Wed 11:19:31 AM 29.3981 -82.9022 325° Northwest 155 178 7,900  Level Jacksonville Center
Wed 11:20:31 AM 29.4336 -82.9258 330° Northwest 155 178 7,900 50 Level Jacksonville Center
Wed 11:21:31 AM 29.4731 -82.9522 330° Northwest 150 173 8,000  Climbing Jacksonville Center
Wed 11:22:31 AM 29.5150 -82.9689 341° North 162 186 7,900 -50 Descending Jacksonville Center
Wed 11:23:31 AM 29.5567 -82.9906 336° Northwest 150 173 7,900  Level Jacksonville Center
Wed 11:24:31 AM 29.5942 -83.0097 336° Northwest 155 178 7,900  Level Jacksonville Center
Wed 11:25:31 AM 29.6358 -83.0289 338° Northwest 160 184 7,900  Level Jacksonville Center
Wed 11:26:31 AM 29.6736 -83.0503 334° Northwest 149 171 7,900  Level Jacksonville Center
Wed 11:27:31 AM 29.7172 -83.0647 344° North 161 185 7,900  Level Jacksonville Center
Wed 11:28:31 AM 29.7528 -83.0839 335° Northwest 156 180 7,900 50 Level Jacksonville Center
Wed 11:29:31 AM 29.7944 -83.1008 341° North 151 174 8,000 50 Climbing Jacksonville Center
Wed 11:30:31 AM 29.8383 -83.1033 357° North 151 174 8,000  Level Jacksonville Center
Wed 11:31:31 AM 29.8842 -83.1058 357° North 151 174 8,000  Level Jacksonville Center
Wed 11:32:31 AM 29.9281 -83.1106 355° North 156 180 8,000  Level Jacksonville Center
Wed 11:33:31 AM 29.9697 -83.1131 357° North 156 180 8,000  Level Jacksonville Center
Wed 11:34:31 AM 30.0158 -83.1206 352° North 156 180 8,000  Level Jacksonville Center
Wed 11:35:31 AM 30.0597 -83.1303 349° North 156 180 8,000  Level Jacksonville Center
Wed 11:36:31 AM 30.1033 -83.1397 349° North 161 185 8,000  Level Jacksonville Center
Wed 11:37:31 AM 30.1472 -83.1494 349° North 161 185 8,000  Level Jacksonville Center
Wed 11:38:31 AM 30.1931 -83.1569 352° North 161 185 8,000  Level Jacksonville Center
Wed 11:39:31 AM 30.2369 -83.1642 352° North 161 185 8,000  Level Jacksonville Center
Wed 11:40:31 AM 30.2808 -83.1717 352° North 161 185 8,000  Level Jacksonville Center
Wed 11:41:31 AM 30.3247 -83.1814 349° North 161 185 8,000  Level Jacksonville Center
Wed 11:41:55 AM 30.3414 -83.1886 339° North 160 184 8,000  Level Jacksonville Center
Wed 11:42:31 AM 30.3686 -83.1911 355° North 161 185 8,000  Level Jacksonville Center
Wed 11:43:26 AM 30.4103 -83.2008 349° North 159 183 8,000  Level Jacksonville Center
Wed 11:44:31 AM 30.4561 -83.2058 355° North 161 185 8,000  Level Jacksonville Center
Wed 11:45:27 AM 30.4978 -83.2181 346° North 161 185 8,000  Level Jacksonville Center
Wed 11:46:31 AM 30.5439 -83.2256 352° North 161 185 8,000  Level Jacksonville Center
Wed 11:47:34 AM 30.5917 -83.2353 350° North 160 184 8,000  Level Jacksonville Center
Wed 11:48:31 AM 30.6314 -83.2403 354° North 161 185 8,000  Level Jacksonville Center
Wed 11:49:31 AM 30.6753 -83.2500 349° North 161 185 8,000  Level Jacksonville Center
Wed 11:50:31 AM 30.7192 -83.2575 352° North 161 185 8,000  Level Jacksonville Center
Wed 11:51:31 AM 30.7650 -83.2672 350° North 161 185 8,000  Level Jacksonville Center
Wed 11:52:31 AM 30.8131 -83.2772 350° North 161 185 8,000  Level Jacksonville Center
Wed 11:53:32 AM 30.8547 -83.2869 349° North 161 185 8,000  Level Jacksonville Center
Wed 11:54:32 AM 30.9028 -83.2944 352° North 159 183 8,000  Level Jacksonville Center
Wed 11:55:33 AM 30.9444 -83.3044 348° North 161 185 8,000  Level Jacksonville Center
Wed 11:56:33 AM 30.9903 -83.3094 355° North 162 186 8,000  Level Jacksonville Center
Wed 11:57:34 AM 31.0342 -83.3192 349° North 162 186 8,000  Level Jacksonville Center
Wed 11:58:35 AM 31.0800 -83.3267 352° North 160 184 8,000  Level Jacksonville Center
Wed 11:59:35 AM 31.1239 -83.3367 349° North 161 185 8,000  Level Jacksonville Center
Wed 12:00:36 PM 31.1719 -83.3442 352° North 164 189 8,000  Level Jacksonville Center
Wed 12:01:36 PM 31.2158 -83.3542 349° North 163 188 8,000  Level Jacksonville Center
Wed 12:02:37 PM 31.2594 -83.3617 352° North 164 189 8,000  Level Jacksonville Center
Wed 12:03:38 PM 31.3053 -83.3717 349° North 165 190 8,000 -48 Level Jacksonville Center
Wed 12:04:43 PM 31.3617 -83.3817 351° North 163 188 7,900  Descending Jacksonville Center
Wed 12:05:39 PM 31.3992 -83.3917 347° North 162 186 8,000  Climbing Jacksonville Center
Wed 12:06:43 PM 31.4453 -83.3992 352° North 163 188 7,900 -48 Descending Jacksonville Center
Wed 12:07:43 PM 31.4911 -83.4092 349° North 169 194 7,900  Level Jacksonville Center
Wed 12:08:43 PM 31.5369 -83.4192 349° North 169 194 7,900  Level Jacksonville Center
Wed 12:09:43 PM 31.5808 -83.4242 354° North 159 183 7,900  Level Jacksonville Center
Wed 12:10:43 PM 31.6267 -83.4367 347° North 159 183 7,900  Level Jacksonville Center
Wed 12:11:43 PM 31.6706 -83.4442 352° North 159 183 7,900  Level Jacksonville Center
Wed 12:12:43 PM 31.7164 -83.4519 352° North 159 183 7,900  Level Jacksonville Center
Wed 12:13:43 PM 31.7561 -83.4594 351° North 159 183 7,900  Level Jacksonville Center
Wed 12:14:43 PM 31.8019 -83.4694 349° North 159 183 7,900 -100 Level Jacksonville Center
Wed 12:15:43 PM 31.8478 -83.4794 350° North 159 183 7,700 -306 Descending Jacksonville Center
Wed 12:17:59 PM 31.9500 -83.5167 343° North 177 204 6,900 -429 Descending Atlanta TRACON
Wed 12:18:59 PM 32.0000 -83.5333 344° North 182 209 6,300 -500 Descending Atlanta TRACON
Wed 12:19:59 PM 32.0667 -83.5500 348° North 174 200 5,900 -149 Descending Atlanta TRACON
Wed 12:21:00 PM 32.1000 -83.5500 360° North 163 188 6,000 50 Climbing Atlanta TRACON
Wed 12:21:59 PM 32.1500 -83.5667 344° North 157 181 6,000 -100 Level Atlanta TRACON
Wed 12:23:00 PM 32.2000 -83.5667 360° North 164 189 5,800 -446 Descending Atlanta TRACON
Wed 12:24:00 PM 32.2333 -83.5667 360° North 177 204 5,100 -600 Descending Atlanta TRACON
Wed 12:25:00 PM 32.2833 -83.5833 344° North 167 192 4,600 -500 Descending Atlanta TRACON
Wed 12:26:00 PM 32.3333 -83.5833 360° North 169 194 4,100 -500 Descending Atlanta TRACON
Wed 12:27:00 PM 32.3833 -83.5833 360° North 167 192 3,600 -500 Descending Atlanta TRACON
Wed 12:28:00 PM 32.4333 -83.6000 344° North 165 190 3,100 -500 Descending Atlanta TRACON
Wed 12:29:00 PM 32.4833 -83.6000 360° North 167 192 2,600 -450 Descending Atlanta TRACON
Wed 12:30:00 PM 32.5167 -83.6000 360° North 166 191 2,200 -250 Descending Atlanta TRACON
Wed 12:31:00 PM 32.5667 -83.6167 344° North 155 178 2,100 -100 Descending Atlanta TRACON
Wed 12:32:00 PM 32.6000 -83.6333 337° Northwest 148 170 2,000 -200 Descending Atlanta TRACON
Wed 12:33:00 PM 32.6333 -83.6333 360° North 143 165 1,700 -300 Descending Atlanta TRACON
Wed 12:34:00 PM 32.6833 -83.6167 16° North 136 157 1,400 -350 Descending Atlanta TRACON
Wed 12:35:00 PM 32.7000 -83.6167 360° North 108 124 1,000 -400 Descending Atlanta TRACON
Wed 12:36:00 PM 32.7000 -83.6333 270° West 92 106 600 -400 Descending Atlanta TRACON
Wed 12:39:00 PM 32.6833 -83.6333 North  Level FlightAware Approximate
Wed 12:46:00 PM 32.6928 -83.6492 North  Level Estimated

Login

Don't have an account? Register now (free) for customized features, flight alerts, and more!